Time;durP1;ratioP1;P1;durP2;ratioP2;P2;SDS_P1;SDS_P2;PMS_P1;PMS_P2;Temp;Humidity;BMP_temperature;BMP_pressure;BME280_temperature;BME280_humidity;BME280_pressure;Samples;Min_cycle;Max_cycle;Signal;HPM_P1;HPM_P2
2022/11/23 00:13:52;;;;;;;;;;;;;;;17.85;48.39;95168.56;5156076;27;20377;-37
2022/11/23 00:28:52;;;;;;;;;;;;;;;17.80;48.27;95181.03;5155864;27;20242;-35
2022/11/23 00:43:54;;;;;;;;;;;;;;;17.77;47.75;95193.03;5155596;27;19930;-36
2022/11/23 00:58:54;;;;;;;;;;;;;;;17.71;47.56;95173.09;5155429;27;19921;-35
2022/11/23 01:13:55;;;;;;;;;;;;;;;17.66;47.42;95189.59;5134681;27;20270;-35
2022/11/23 01:28:55;;;;;;;;;;;;;;;17.59;46.95;95207.25;5134353;27;19921;-37
2022/11/23 01:43:57;;;;;;;;;;;;;;;17.63;46.75;95217.97;5097145;28;19915;-35
2022/11/23 01:59:01;;;;;;;;;;;;;;;17.54;46.57;95224.47;5096663;28;19938;-35
2022/11/23 02:13:59;;;;;;;;;;;;;;;17.49;46.38;95230.69;5117051;28;20281;-35
2022/11/23 02:28:59;;;;;;;;;;;;;;;17.44;46.25;95250.63;5116883;28;19915;-36
2022/11/23 02:44:00;;;;;;;;;;;;;;;17.40;45.78;95270.09;5116399;28;20320;-36
2022/11/23 02:59:00;;;;;;;;;;;;;;;17.40;45.72;95286.53;5116018;28;19918;-36
2022/11/23 03:14:01;;;;;;;;;;;;;;;17.34;45.53;95299.47;5116029;28;20468;-35
2022/11/23 03:29:02;;;;;;;;;;;;;;;17.34;45.48;95304.94;5115482;28;19918;-37
2022/11/23 03:44:03;;;;;;;;;;;;;;;17.27;44.87;95310.94;5156632;27;19968;-36
2022/11/23 03:46:28;;;;;;;;;;;;;;;17.30;44.95;95317.41;5156738;27;19907;-35
2022/11/23 04:01:06;;;;;;;;;;;;;;;17.13;45.16;95334.56;5155503;27;19956;-36
2022/11/23 04:03:32;;;;;;;;;;;;;;;17.17;45.05;95331.59;5156481;27;19915;-35
2022/11/23 04:15:06;;;;;;;;;;;;;;;17.20;44.78;95347.78;5156054;27;20018;-35
2022/11/23 04:29:42;;;;;;;;;;;;;;;17.16;44.77;95352.78;5155237;27;20370;-35
2022/11/23 04:44:20;;;;;;;;;;;;;;;17.15;44.43;95353.25;5155651;27;19999;-35
2022/11/23 04:59:08;;;;;;;;;;;;;;;17.19;44.47;95340.06;5155194;27;20486;-36
2022/11/23 05:14:08;;;;;;;;;;;;;;;17.15;44.29;95370.44;5159420;27;19936;-35
2022/11/23 05:29:09;;;;;;;;;;;;;;;17.07;44.18;95374.16;5159047;27;20381;-36
2022/11/23 05:44:11;;;;;;;;;;;;;;;17.01;44.25;95398.06;5117662;28;19957;-35
2022/11/23 05:59:10;;;;;;;;;;;;;;;17.01;44.30;95403.53;5117317;28;20282;-35
2022/11/23 06:14:11;;;;;;;;;;;;;;;17.03;44.60;95401.03;5117421;28;19999;-36
2022/11/23 06:29:12;;;;;;;;;;;;;;;16.94;44.54;95425.91;5116521;28;19961;-35
2022/11/23 06:44:13;;;;;;;;;;;;;;;17.00;44.27;95423.94;5101841;28;20002;-36
2022/11/23 06:59:14;;;;;;;;;;;;;;;16.93;44.42;95463.50;5095807;28;19996;-35
2022/11/23 07:01:40;;;;;;;;;;;;;;;16.97;44.25;95479.69;5110287;28;20386;-36
2022/11/23 07:16:16;;;;;;;;;;;;;;;17.00;44.35;95519.81;5095518;28;19933;-35
2022/11/23 07:30:53;;;;;;;;;;;;;;;17.00;44.27;95547.94;5123292;27;19923;-35
2022/11/23 07:45:30;;;;;;;;;;;;;;;16.97;44.67;95545.44;5153817;27;19921;-37
2022/11/23 08:15:29;;;;;;;;;;;;;;;17.05;45.42;95551.97;6130135;22;2131503;-33
2022/11/23 08:30:30;;;;;;;;;;;;;;;17.10;45.70;95571.16;6161067;23;19923;-33
2022/11/23 08:45:07;;;;;;;;;;;;;;;16.73;46.34;95554.75;6160095;23;19918;-33
2022/11/23 08:59:44;;;;;;;;;;;;;;;16.91;46.21;95547.41;6161480;23;19920;-33
2022/11/23 09:14:22;;;;;;;;;;;;;;;16.98;46.17;95579.81;6152390;23;20338;-33
2022/11/23 09:29:24;;;;;;;;;;;;;;;16.71;46.98;95601.03;6157694;23;19915;-34
2022/11/23 09:44:22;;;;;;;;;;;;;;;16.98;46.74;95629.09;6157410;23;19920;-35
2022/11/23 09:46:50;;;;;;;;;;;;;;;16.90;46.61;95639.00;6157350;23;19944;-34
2022/11/23 10:29:26;;;;;;;;;;;;;;;17.05;46.06;95636.88;6156945;23;19920;-34
2022/11/23 10:31:52;;;;;;;;;;;;;;;17.11;45.58;95641.16;6157047;23;19909;-34
2022/11/23 11:14:29;;;;;;;;;;;;;;;17.13;45.49;95627.72;6156672;23;19931;-33
2022/11/23 11:16:56;;;;;;;;;;;;;;;17.12;45.62;95637.19;6154736;23;19921;-33
2022/11/23 11:31:55;;;;;;;;;;;;;;;16.97;45.91;95638.56;6156129;23;19959;-33
2022/11/23 11:46:35;;;;;;;;;;;;;;;17.00;46.04;95627.38;6156232;23;19987;-33
2022/11/23 12:47:06;;;;;;;;;;;;;;;17.08;46.87;95642.13;6158316;23;19919;-34
2022/11/23 13:01:51;;;;;;;;;;;;;;;17.17;46.60;95646.69;6154215;23;19920;-34
2022/11/23 13:44:36;;;;;;;;;;;;;;;17.16;47.07;95684.28;6153113;23;19922;-33
2022/11/23 13:59:37;;;;;;;;;;;;;;;17.20;46.86;95687.53;6154226;23;19922;-34
2022/11/23 14:14:38;;;;;;;;;;;;;;;17.22;46.92;95701.50;6153984;23;20338;-33
2022/11/23 14:17:22;;;;;;;;;;;;;;;17.20;46.91;95711.44;6153697;23;19928;-34
2022/11/23 14:19:53;;;;;;;;;;;;;;;17.21;47.09;95715.69;6154730;23;19909;-34
2022/11/23 14:31:42;;;;;;;;;;;;;;;17.22;47.14;95717.19;6154187;23;19919;-34
2022/11/23 14:46:20;;;;;;;;;;;;;;;17.22;47.35;95726.16;6151355;23;19951;-34
2022/11/23 15:00:58;;;;;;;;;;;;;;;17.22;47.87;95731.66;6153816;23;19967;-34
2022/11/23 15:15:38;;;;;;;;;;;;;;;17.23;48.11;95738.63;6152964;23;19970;-36
2022/11/23 15:30:18;;;;;;;;;;;;;;;17.29;48.00;95740.69;6153821;23;20332;-36
2022/11/23 15:44:55;;;;;;;;;;;;;;;17.26;48.33;95747.88;6151748;23;19916;-35
2022/11/23 15:59:47;;;;;;;;;;;;;;;17.27;48.29;95765.06;6153104;23;19916;-34
2022/11/23 16:14:55;;;;;;;;;;;;;;;17.17;48.39;95769.97;6153208;23;19924;-34
2022/11/23 16:29:59;;;;;;;;;;;;;;;17.18;48.22;95780.44;6125797;23;19966;-36
2022/11/23 16:44:45;;;;;;;;;;;;;;;17.19;48.15;95795.63;6123336;23;20107;-33
2022/11/23 16:59:46;;;;;;;;;;;;;;;17.17;47.88;95794.63;6125372;23;19964;-34
2022/11/23 17:14:47;;;;;;;;;;;;;;;17.15;47.85;95814.31;6125080;23;19924;-33
2022/11/23 17:17:18;;;;;;;;;;;;;;;17.17;47.79;95813.81;6153322;23;19920;-33
2022/11/23 17:31:54;;;;;;;;;;;;;;;17.15;47.74;95827.25;6154824;23;20465;-34
2022/11/23 17:46:32;;;;;;;;;;;;;;;17.13;47.77;95835.19;6152281;23;20242;-34
2022/11/23 18:01:16;;;;;;;;;;;;;;;17.17;47.55;95841.22;6154477;23;19920;-34
2022/11/23 18:15:52;;;;;;;;;;;;;;;17.19;47.77;95849.69;6156631;23;19924;-34
2022/11/23 18:30:29;;;;;;;;;;;;;;;17.12;48.06;95853.63;6156851;23;19931;-34
2022/11/23 18:45:07;;;;;;;;;;;;;;;16.48;52.53;95862.06;6156716;23;19916;-33
2022/11/23 18:59:53;;;;;;;;;;;;;;;16.96;52.73;95861.66;6153163;23;19967;-35
2022/11/23 19:14:53;;;;;;;;;;;;;;;17.13;52.18;95882.53;6151482;23;19916;-35
2022/11/23 19:29:54;;;;;;;;;;;;;;;17.35;51.13;95898.44;6153374;23;20346;-34
2022/11/23 19:32:19;;;;;;;;;;;;;;;17.39;51.02;95900.97;6153573;23;19960;-34
2022/11/23 19:46:56;;;;;;;;;;;;;;;17.47;50.65;95921.97;6153142;23;19939;-35
2022/11/23 20:01:34;;;;;;;;;;;;;;;17.54;50.23;95931.78;6153186;23;19943;-34
2022/11/23 20:16:13;;;;;;;;;;;;;;;17.69;49.61;95931.66;6152501;23;19928;-34
2022/11/23 20:30:49;;;;;;;;;;;;;;;17.70;49.35;95955.88;6153123;23;20238;-34
2022/11/23 20:45:27;;;;;;;;;;;;;;;17.68;49.35;95963.81;6152655;23;19962;-34
2022/11/23 20:47:53;;;;;;;;;;;;;;;17.67;49.38;95978.78;6153731;23;19999;-35
2022/11/23 20:59:59;;;;;;;;;;;;;;;17.71;49.27;95984.03;6152964;23;19923;-34
2022/11/23 21:15:00;;;;;;;;;;;;;;;17.66;49.03;95999.22;6153136;23;19956;-35
2022/11/23 21:30:01;;;;;;;;;;;;;;;17.72;48.98;96007.50;6125722;23;20406;-34
2022/11/23 21:45:02;;;;;;;;;;;;;;;17.66;49.01;96036.88;6125516;23;20622;-34
2022/11/23 22:00:02;;;;;;;;;;;;;;;17.77;48.73;96013.03;6125321;23;19920;-35
2022/11/23 22:15:03;;;;;;;;;;;;;;;17.60;49.12;95996.38;6123120;23;19920;-34
2022/11/23 22:17:28;;;;;;;;;;;;;;;17.72;48.77;96015.72;6154382;23;19921;-34
2022/11/23 22:45:05;;;;;;;;;;;;;;;17.72;48.64;96011.00;6153646;23;20107;-34
2022/11/23 23:00:25;;;;;;;;;;;;;;;17.69;48.65;96035.88;6154002;23;20399;-34
2022/11/23 23:15:28;;;;;;;;;;;;;;;17.69;48.31;96047.59;6150904;23;20039;-34
2022/11/23 23:30:08;;;;;;;;;;;;;;;17.71;48.07;96036.16;6153603;23;19919;-34
2022/11/23 23:45:08;;;;;;;;;;;;;;;17.67;48.10;96021.91;6153270;23;20039;-34
